Time;durP1;ratioP1;P1;durP2;ratioP2;P2;SDS_P1;SDS_P2;PMS_P1;PMS_P2;Temp;Humidity;BMP_temperature;BMP_pressure;BME280_temperature;BME280_humidity;BME280_pressure;Samples;Min_cycle;Max_cycle;Signal;HPM_P1;HPM_P2
2021/06/23 00:01:13;;;;;;;4.65;2.67;;;;;;;18.64;66.32;100739.09;4975576;28;20050;-78
2021/06/23 00:03:39;;;;;;;4.70;2.45;;;;;;;18.69;66.23;100747.81;4975291;28;20418;-78
2021/06/23 00:06:05;;;;;;;5.75;3.22;;;;;;;18.67;66.26;100741.66;4975283;28;20129;-78
2021/06/23 00:08:30;;;;;;;6.07;2.72;;;;;;;18.64;65.95;100736.41;4975524;28;20141;-78
2021/06/23 00:10:56;;;;;;;4.25;2.80;;;;;;;18.56;66.40;100744.72;4957928;28;20042;-78
2021/06/23 00:13:21;;;;;;;5.55;2.83;;;;;;;18.46;66.50;100734.41;4975214;28;20150;-78
2021/06/23 00:15:47;;;;;;;5.20;3.08;;;;;;;18.50;66.39;100744.06;4957641;28;20039;-78
2021/06/23 00:18:13;;;;;;;4.68;2.67;;;;;;;18.60;66.39;100745.47;4975483;28;20889;-78
2021/06/23 00:20:38;;;;;;;4.88;3.00;;;;;;;18.66;65.95;100749.75;4957861;28;20073;-78
2021/06/23 00:23:04;;;;;;;4.72;3.33;;;;;;;18.69;65.31;100750.50;4974405;28;20454;-78
2021/06/23 00:25:29;;;;;;;4.88;2.92;;;;;;;18.53;65.67;100755.53;4974732;28;20411;-78
2021/06/23 00:27:55;;;;;;;5.30;2.97;;;;;;;18.42;66.24;100756.81;4957751;28;20035;-78
2021/06/23 00:30:21;;;;;;;6.63;3.08;;;;;;;18.20;66.74;100749.53;4975026;28;20050;-78
2021/06/23 00:32:48;;;;;;;5.35;3.25;;;;;;;18.14;66.80;100752.44;4957543;28;20045;-78
2021/06/23 00:35:14;;;;;;;4.63;3.20;;;;;;;18.06;67.36;100749.16;4974758;28;20035;-78
2021/06/23 00:37:39;;;;;;;5.18;3.20;;;;;;;18.05;66.81;100758.97;4975446;28;20038;-80
2021/06/23 00:40:06;;;;;;;7.35;3.50;;;;;;;17.98;67.39;100752.06;4958359;28;20034;-80
2021/06/23 00:42:33;;;;;;;6.00;3.45;;;;;;;17.98;67.10;100759.22;4942653;28;20399;-78
2021/06/23 00:45:02;;;;;;;6.00;3.45;;;;;;;17.89;67.67;100753.25;4974931;28;20066;-80
2021/06/23 00:47:28;;;;;;;7.65;3.33;;;;;;;17.86;67.73;100761.34;4975404;28;20165;-80
2021/06/23 00:49:54;;;;;;;5.55;3.35;;;;;;;17.89;67.86;100758.59;4937249;28;20651;-78
2021/06/23 00:52:44;;;;;;;7.38;3.60;;;;;;;17.98;67.63;100759.22;4953135;28;20499;-78
2021/06/23 00:55:28;;;;;;;5.63;3.63;;;;;;;17.96;67.88;100749.44;4967931;28;20077;-77
2021/06/23 00:57:55;;;;;;;6.95;3.40;;;;;;;17.89;67.93;100747.03;4957282;28;20106;-78
2021/06/23 01:00:25;;;;;;;5.82;3.38;;;;;;;17.77;68.52;100745.63;4974442;28;20034;-78
2021/06/23 01:02:51;;;;;;;6.72;3.70;;;;;;;17.79;68.69;100745.53;4974472;28;20030;-78
2021/06/23 01:05:19;;;;;;;5.65;3.63;;;;;;;17.74;69.12;100741.25;4956919;28;20442;-78
2021/06/23 01:07:47;;;;;;;6.40;3.97;;;;;;;17.63;69.34;100738.06;4956936;28;20059;-78
2021/06/23 01:10:14;;;;;;;5.60;4.20;;;;;;;17.56;69.69;100735.63;4974093;28;20046;-78
2021/06/23 01:12:54;;;;;;;6.80;4.25;;;;;;;17.59;69.61;100728.38;4974533;28;20066;-78
2021/06/23 01:15:20;;;;;;;7.75;4.47;;;;;;;17.60;69.86;100729.25;4956849;28;20093;-78
2021/06/23 01:17:47;;;;;;;6.43;4.13;;;;;;;17.65;69.82;100728.19;4974396;28;20031;-78
2021/06/23 01:20:13;;;;;;;5.38;3.85;;;;;;;17.59;70.16;100725.72;4973983;28;20701;-78
2021/06/23 01:22:42;;;;;;;5.70;4.00;;;;;;;17.58;70.08;100724.00;4974260;28;20038;-78
2021/06/23 01:25:12;;;;;;;7.32;4.57;;;;;;;17.61;70.39;100731.88;4956382;28;20027;-78
2021/06/23 01:27:41;;;;;;;6.60;4.78;;;;;;;17.52;70.80;100738.38;4956834;28;20031;-80
2021/06/23 01:30:08;;;;;;;6.63;4.47;;;;;;;17.49;70.82;100738.47;4956940;28;20038;-80
2021/06/23 01:32:43;;;;;;;7.00;4.20;;;;;;;17.55;71.57;100744.53;4952180;28;20195;-80
2021/06/23 01:35:09;;;;;;;6.63;4.30;;;;;;;17.57;70.93;100740.03;4956277;28;20041;-78
2021/06/23 01:37:35;;;;;;;9.60;4.55;;;;;;;17.61;70.55;100749.69;4973610;28;20565;-78
2021/06/23 01:40:00;;;;;;;5.18;4.03;;;;;;;17.62;70.63;100754.09;4956763;28;20522;-78
2021/06/23 01:42:27;;;;;;;5.45;4.57;;;;;;;17.71;70.36;100764.47;4974005;28;20035;-78
2021/06/23 01:44:54;;;;;;;7.40;4.80;;;;;;;17.72;70.31;100771.56;4956345;28;20037;-78
2021/06/23 01:47:19;;;;;;;5.95;4.28;;;;;;;17.76;70.49;100770.53;4973545;28;20042;-78
2021/06/23 01:49:46;;;;;;;8.02;5.25;;;;;;;17.89;70.08;100774.63;4956395;28;20395;-78
2021/06/23 01:52:12;;;;;;;7.55;4.72;;;;;;;17.99;70.05;100775.16;4973451;28;20030;-78
2021/06/23 01:54:41;;;;;;;8.27;5.40;;;;;;;18.06;70.05;100773.19;4955992;28;20165;-78
2021/06/23 01:57:11;;;;;;;5.30;4.60;;;;;;;18.03;69.97;100766.16;4973476;28;20034;-78
2021/06/23 01:59:38;;;;;;;5.50;4.40;;;;;;;18.07;69.91;100769.59;4956261;28;20133;-78
2021/06/23 02:02:29;;;;;;;8.00;4.57;;;;;;;18.05;69.89;100771.41;4970466;28;20035;-78
2021/06/23 02:05:04;;;;;;;8.43;5.18;;;;;;;18.07;69.49;100767.78;4952346;28;20120;-78
2021/06/23 02:07:45;;;;;;;7.38;5.40;;;;;;;17.98;70.04;100767.22;4973304;28;20069;-78
2021/06/23 02:10:40;;;;;;;6.93;4.80;;;;;;;17.92;70.20;100769.19;4955967;28;20065;-78
2021/06/23 02:13:50;;;;;;;7.15;5.55;;;;;;;17.95;70.38;100763.72;4968856;28;20043;-78
2021/06/23 02:16:36;;;;;;;6.72;5.05;;;;;;;18.03;70.15;100759.94;4928882;28;20054;-78
2021/06/23 02:19:04;;;;;;;5.55;4.47;;;;;;;18.04;69.79;100757.19;4940210;28;20038;-78
2021/06/23 02:21:52;;;;;;;6.40;4.70;;;;;;;18.05;69.54;100769.66;4954075;28;20503;-80
2021/06/23 02:24:18;;;;;;;6.25;4.43;;;;;;;18.04;69.73;100762.53;4954981;28;20250;-77
2021/06/23 02:26:51;;;;;;;7.35;3.97;;;;;;;17.91;70.41;100764.75;4954959;28;20077;-77
2021/06/23 02:29:17;;;;;;;5.57;4.60;;;;;;;17.85;70.46;100761.41;4952461;28;20031;-77
2021/06/23 02:31:43;;;;;;;5.97;4.97;;;;;;;17.83;70.90;100769.47;4934485;28;20407;-77
2021/06/23 02:34:15;;;;;;;8.35;4.65;;;;;;;17.92;70.60;100777.19;4954797;28;20388;-77
2021/06/23 02:37:01;;;;;;;6.30;4.63;;;;;;;17.95;70.59;100773.53;4969043;28;20499;-77
2021/06/23 02:39:26;;;;;;;6.53;4.45;;;;;;;17.99;70.39;100788.53;4955054;28;20038;-77
2021/06/23 02:41:53;;;;;;;7.38;4.80;;;;;;;18.00;70.31;100802.75;4972204;28;20041;-77
2021/06/23 02:44:18;;;;;;;6.30;4.53;;;;;;;17.98;70.50;100809.97;4971870;28;20034;-77
2021/06/23 02:46:45;;;;;;;5.93;4.68;;;;;;;18.04;70.60;100810.63;4975260;28;20491;-80
2021/06/23 02:49:23;;;;;;;6.80;4.53;;;;;;;18.06;70.09;100802.56;4942343;28;20037;-80
2021/06/23 02:51:49;;;;;;;8.07;4.95;;;;;;;18.07;70.01;100802.50;4944095;28;20054;-79
2021/06/23 02:54:15;;;;;;;5.63;4.47;;;;;;;18.13;70.08;100798.75;4976918;28;20042;-79
2021/06/23 02:57:04;;;;;;;6.72;5.30;;;;;;;18.10;70.19;100798.84;4957211;28;20130;-80
2021/06/23 02:59:32;;;;;;;6.47;5.07;;;;;;;18.03;70.54;100792.00;4960019;28;20109;-79
2021/06/23 03:01:58;;;;;;;6.50;5.30;;;;;;;17.98;70.64;100810.81;4959988;28;20089;-79
2021/06/23 03:04:23;;;;;;;6.88;5.35;;;;;;;17.86;71.04;100808.53;4976688;28;20042;-79
2021/06/23 03:07:09;;;;;;;7.78;5.07;;;;;;;17.83;71.11;100811.31;4972251;28;20090;-79
2021/06/23 03:09:36;;;;;;;6.25;4.68;;;;;;;17.83;70.95;100806.84;4959857;28;20031;-79
2021/06/23 03:12:16;;;;;;;6.80;5.03;;;;;;;17.79;71.15;100807.88;4956586;28;20042;-79
2021/06/23 03:15:08;;;;;;;5.68;4.55;;;;;;;17.75;71.31;100815.06;4939566;28;20530;-79
2021/06/23 03:17:34;;;;;;;5.70;5.10;;;;;;;17.71;71.75;100823.19;4959403;28;20068;-79
2021/06/23 03:20:08;;;;;;;6.97;5.68;;;;;;;17.68;71.74;100825.97;4959684;28;20106;-79
2021/06/23 03:22:40;;;;;;;7.47;5.85;;;;;;;17.64;71.99;100827.00;4959613;28;20454;-79
2021/06/23 03:25:06;;;;;;;6.90;5.75;;;;;;;17.58;72.24;100832.50;4976645;28;20035;-79
2021/06/23 03:27:32;;;;;;;7.97;5.70;;;;;;;17.56;72.38;100839.72;4977055;28;20034;-79
2021/06/23 03:29:58;;;;;;;6.70;5.30;;;;;;;17.63;72.30;100831.47;4959270;28;20406;-79
2021/06/23 03:32:24;;;;;;;8.02;5.82;;;;;;;17.61;72.47;100830.63;4976848;28;20089;-79
2021/06/23 03:34:50;;;;;;;9.63;6.20;;;;;;;17.60;72.61;100836.88;4949669;28;20026;-79
2021/06/23 03:37:16;;;;;;;7.40;6.18;;;;;;;17.52;73.09;100839.78;4969918;28;20031;-80
2021/06/23 03:39:42;;;;;;;9.60;6.70;;;;;;;17.44;73.56;100844.47;4975451;28;20038;-79
2021/06/23 03:42:09;;;;;;;7.80;6.50;;;;;;;17.44;74.08;100835.59;4976546;28;20045;-79
2021/06/23 03:44:35;;;;;;;8.80;6.72;;;;;;;17.47;73.80;100841.69;4958885;28;20477;-79
2021/06/23 03:47:02;;;;;;;7.32;6.47;;;;;;;17.61;73.49;100832.44;4959064;28;20030;-80
2021/06/23 03:49:29;;;;;;;7.68;6.88;;;;;;;17.70;73.19;100833.00;4959035;28;20085;-79
2021/06/23 03:51:58;;;;;;;8.40;6.82;;;;;;;17.81;72.92;100838.03;4959005;28;20031;-79
2021/06/23 03:54:24;;;;;;;8.25;6.32;;;;;;;17.88;72.39;100826.25;4976006;28;20161;-79
2021/06/23 03:56:53;;;;;;;8.32;7.07;;;;;;;17.94;72.29;100830.53;4957033;28;20034;-79
2021/06/23 03:59:18;;;;;;;7.75;6.85;;;;;;;17.99;72.18;100827.72;4972871;28;20491;-79
2021/06/23 04:01:44;;;;;;;8.35;6.32;;;;;;;18.05;72.04;100838.19;4958338;28;20041;-79
2021/06/23 04:04:12;;;;;;;7.68;6.53;;;;;;;18.14;71.48;100836.09;4975966;28;20534;-78
2021/06/23 04:06:58;;;;;;;7.75;6.97;;;;;;;18.17;71.59;100835.13;4958552;28;20639;-79
2021/06/23 04:09:23;;;;;;;10.63;6.68;;;;;;;18.18;71.50;100839.53;4968631;28;20144;-79
2021/06/23 04:11:57;;;;;;;8.80;6.93;;;;;;;18.13;71.83;100838.81;4958483;28;20031;-79
2021/06/23 04:14:23;;;;;;;8.18;6.03;;;;;;;18.24;71.39;100835.81;4958306;28;20384;-79
2021/06/23 04:16:52;;;;;;;6.45;5.68;;;;;;;18.24;71.16;100828.66;4958554;28;20035;-79
2021/06/23 04:19:19;;;;;;;8.43;6.15;;;;;;;18.42;70.70;100829.84;4942312;28;20023;-79
2021/06/23 04:21:52;;;;;;;7.53;6.72;;;;;;;18.56;70.03;100840.06;4972407;28;20038;-79
2021/06/23 04:24:18;;;;;;;8.82;6.97;;;;;;;18.68;69.64;100845.00;4958213;28;20596;-80
2021/06/23 04:26:44;;;;;;;8.68;6.63;;;;;;;18.74;69.32;100849.25;4975626;28;20202;-79
2021/06/23 04:29:12;;;;;;;8.40;6.07;;;;;;;18.74;69.37;100849.25;4958166;28;20049;-79
2021/06/23 04:31:39;;;;;;;7.60;6.80;;;;;;;18.75;69.40;100854.56;4958063;28;20057;-79
2021/06/23 04:34:05;;;;;;;10.10;6.72;;;;;;;18.82;69.46;100847.22;4975440;28;20390;-79
2021/06/23 04:36:31;;;;;;;9.52;6.70;;;;;;;19.04;68.70;100847.31;4974851;28;20038;-79
2021/06/23 04:38:57;;;;;;;7.72;6.85;;;;;;;19.11;68.64;100848.84;4957762;28;20050;-79
2021/06/23 04:41:24;;;;;;;7.80;6.45;;;;;;;19.27;68.41;100855.38;4975285;28;20065;-79
2021/06/23 04:43:51;;;;;;;7.50;6.72;;;;;;;19.22;68.04;100854.66;4958373;28;20455;-79
2021/06/23 04:46:17;;;;;;;6.18;5.47;;;;;;;19.38;67.72;100864.81;4957740;28;20102;-79
2021/06/23 04:48:43;;;;;;;7.07;5.40;;;;;;;19.52;67.67;100864.28;4975498;28;20122;-79
2021/06/23 04:51:17;;;;;;;9.45;5.65;;;;;;;19.54;68.18;100865.97;4957620;28;20511;-79
2021/06/23 04:53:43;;;;;;;7.10;5.22;;;;;;;19.58;67.51;100872.09;4971021;28;20031;-79
2021/06/23 04:56:08;;;;;;;7.03;5.78;;;;;;;19.51;67.48;100866.09;4974828;28;20053;-79
2021/06/23 04:58:39;;;;;;;8.00;6.03;;;;;;;19.53;67.94;100872.25;4942090;28;20030;-79
2021/06/23 05:01:08;;;;;;;6.40;5.20;;;;;;;19.65;67.62;100874.47;4974968;28;20034;-79
2021/06/23 05:03:41;;;;;;;6.70;5.30;;;;;;;19.82;67.10;100889.91;4974826;28;20086;-79
2021/06/23 05:06:07;;;;;;;11.40;5.75;;;;;;;19.93;66.67;100881.47;4974522;28;20035;-79
2021/06/23 05:08:32;;;;;;;6.65;5.70;;;;;;;19.91;66.34;100881.53;4974476;28;20027;-79
2021/06/23 05:10:57;;;;;;;8.75;6.15;;;;;;;20.02;66.49;100875.75;4974482;28;20411;-79
2021/06/23 05:13:24;;;;;;;9.68;5.60;;;;;;;20.21;66.01;100875.00;4974718;28;20093;-80
2021/06/23 05:15:51;;;;;;;6.70;5.07;;;;;;;20.17;66.46;100876.91;4972634;28;20054;-79
2021/06/23 05:18:16;;;;;;;6.28;5.65;;;;;;;20.16;65.92;100874.31;4956697;28;20034;-79
2021/06/23 05:20:43;;;;;;;8.15;5.65;;;;;;;20.28;65.99;100881.88;4963890;28;20042;-79
2021/06/23 05:23:08;;;;;;;7.40;5.43;;;;;;;20.31;65.41;100889.78;4956707;28;20070;-79
2021/06/23 05:25:34;;;;;;;6.85;5.03;;;;;;;20.46;65.77;100890.94;4974174;28;20030;-79
2021/06/23 05:28:00;;;;;;;6.53;5.03;;;;;;;20.64;65.35;100887.53;4957189;28;20057;-79
2021/06/23 05:30:26;;;;;;;9.15;4.95;;;;;;;20.57;64.93;100894.09;4966572;28;20182;-79
2021/06/23 05:32:51;;;;;;;7.93;4.70;;;;;;;20.58;64.49;100895.84;4974558;28;20027;-79
2021/06/23 05:35:18;;;;;;;8.70;5.55;;;;;;;20.49;64.52;100896.19;4974108;28;20121;-79
2021/06/23 05:37:44;;;;;;;6.28;4.80;;;;;;;20.43;65.20;100902.66;4974849;28;20031;-79
2021/06/23 05:40:10;;;;;;;9.77;5.25;;;;;;;20.45;65.06;100895.44;4974108;28;20538;-79
2021/06/23 05:42:36;;;;;;;11.48;5.63;;;;;;;20.43;64.78;100897.31;4974581;28;20026;-79
2021/06/23 05:45:02;;;;;;;8.23;5.32;;;;;;;20.54;64.90;100904.94;4972257;28;20073;-79
2021/06/23 05:47:28;;;;;;;6.95;5.30;;;;;;;20.78;64.46;100908.41;4974070;28;20049;-79
2021/06/23 05:49:53;;;;;;;7.38;5.28;;;;;;;20.94;63.74;100908.63;4973930;28;20117;-80
2021/06/23 05:52:18;;;;;;;9.90;5.78;;;;;;;21.16;63.45;100911.22;4974217;28;20078;-79
2021/06/23 05:54:44;;;;;;;8.88;5.50;;;;;;;21.19;62.34;100913.78;4973913;28;20035;-80
2021/06/23 05:57:09;;;;;;;8.18;5.05;;;;;;;21.26;62.65;100915.25;4973828;28;20122;-80
2021/06/23 05:59:34;;;;;;;8.52;5.00;;;;;;;21.30;62.25;100914.19;4974117;28;20063;-79
2021/06/23 06:02:00;;;;;;;8.88;5.43;;;;;;;21.40;61.84;100922.72;4956503;28;20047;-80
2021/06/23 06:04:25;;;;;;;8.35;5.00;;;;;;;21.39;61.73;100921.84;4956453;28;20097;-80
2021/06/23 06:06:50;;;;;;;9.63;6.15;;;;;;;21.56;61.93;100920.22;4973856;28;20050;-79
2021/06/23 06:09:16;;;;;;;11.13;6.38;;;;;;;21.71;60.68;100916.81;4974109;28;20053;-79
2021/06/23 06:11:41;;;;;;;7.15;5.22;;;;;;;21.84;60.57;100923.38;4973938;28;20089;-79
2021/06/23 06:14:07;;;;;;;6.43;5.18;;;;;;;22.01;60.72;100916.34;4956510;28;20068;-79
2021/06/23 06:16:32;;;;;;;7.85;4.75;;;;;;;22.02;60.51;100920.75;4973440;28;20039;-79
2021/06/23 06:18:58;;;;;;;6.80;4.82;;;;;;;22.18;59.71;100921.75;4973894;28;20085;-79
2021/06/23 06:21:24;;;;;;;7.05;5.13;;;;;;;22.26;59.50;100924.13;4973380;28;20053;-79
2021/06/23 06:23:49;;;;;;;8.85;4.35;;;;;;;22.28;59.59;100928.47;4956334;28;20039;-79
2021/06/23 06:26:24;;;;;;;8.30;5.07;;;;;;;22.35;59.68;100925.47;4973382;28;20038;-79
2021/06/23 06:28:49;;;;;;;8.93;5.65;;;;;;;22.52;59.54;100928.22;4973731;28;20129;-79
2021/06/23 06:31:15;;;;;;;10.27;6.90;;;;;;;22.71;57.99;100929.03;4970829;28;20058;-79
2021/06/23 06:33:40;;;;;;;11.95;8.30;;;;;;;22.80;57.94;100929.53;4972973;28;20031;-79
2021/06/23 06:36:06;;;;;;;11.45;6.85;;;;;;;22.83;57.68;100934.75;4973728;28;20038;-79
2021/06/23 06:38:31;;;;;;;7.75;4.80;;;;;;;22.74;58.29;100939.66;4972606;28;20526;-79
2021/06/23 06:40:56;;;;;;;9.05;4.70;;;;;;;22.67;58.27;100940.03;4973060;28;20414;-79
2021/06/23 06:43:22;;;;;;;7.30;4.43;;;;;;;22.42;58.69;100949.31;4973022;28;20034;-79
2021/06/23 06:45:50;;;;;;;6.68;5.97;;;;;;;22.40;58.93;100944.94;4973351;28;20415;-79
2021/06/23 06:48:17;;;;;;;6.85;4.20;;;;;;;22.31;58.38;100947.13;4973137;28;20514;-79
2021/06/23 06:50:42;;;;;;;10.40;8.85;;;;;;;22.29;58.70;100940.09;4956261;28;20503;-79
2021/06/23 06:53:07;;;;;;;14.30;9.85;;;;;;;22.47;58.41;100954.47;4973112;28;20042;-79
2021/06/23 06:55:33;;;;;;;11.38;8.80;;;;;;;22.64;58.22;100959.03;4972960;28;20088;-79
2021/06/23 06:57:58;;;;;;;9.68;6.05;;;;;;;22.71;57.53;100963.13;4971131;28;20532;-79
2021/06/23 07:00:24;;;;;;;9.20;8.05;;;;;;;22.71;57.72;100961.31;4973400;28;20041;-78
2021/06/23 07:02:52;;;;;;;12.90;9.93;;;;;;;22.80;57.70;100961.81;4973384;28;20125;-79
2021/06/23 07:05:18;;;;;;;7.35;5.50;;;;;;;22.86;57.06;100961.50;4957265;28;20039;-79
2021/06/23 07:07:43;;;;;;;8.80;5.88;;;;;;;22.69;57.76;100967.75;4973195;28;20054;-79
2021/06/23 07:10:09;;;;;;;8.00;5.75;;;;;;;22.73;57.83;100964.81;4973464;28;20110;-79
2021/06/23 07:12:34;;;;;;;9.05;7.25;;;;;;;22.82;57.85;100965.28;4973358;28;20510;-79
2021/06/23 07:15:00;;;;;;;9.07;7.00;;;;;;;22.88;57.03;100970.38;4972693;28;20051;-79
2021/06/23 07:17:25;;;;;;;9.15;7.53;;;;;;;22.88;57.06;100975.75;4973348;28;20037;-79
2021/06/23 07:19:50;;;;;;;8.77;6.68;;;;;;;23.02;57.08;100975.94;4972737;28;20035;-79
2021/06/23 07:22:16;;;;;;;6.10;4.82;;;;;;;23.10;56.79;100970.19;4972834;28;20035;-79
2021/06/23 07:24:41;;;;;;;6.63;4.97;;;;;;;23.22;56.48;100972.25;4966393;28;20062;-79
2021/06/23 07:27:07;;;;;;;8.10;4.90;;;;;;;23.36;56.36;100968.81;4955970;28;20462;-80
2021/06/23 07:29:32;;;;;;;7.90;5.28;;;;;;;23.43;56.46;100966.69;4973249;28;20487;-79
2021/06/23 07:32:03;;;;;;;8.85;4.88;;;;;;;23.43;56.38;100961.31;4940606;28;20043;-79
2021/06/23 07:37:01;;;;;;;10.85;6.00;;;;;;;23.51;56.37;100951.00;4976615;28;20041;-79
2021/06/23 07:39:26;;;;;;;12.48;10.35;;;;;;;23.56;55.59;100947.09;4976856;28;20058;-79
2021/06/23 07:41:52;;;;;;;8.73;7.35;;;;;;;23.65;55.46;100948.41;4976383;28;20046;-79
2021/06/23 07:44:22;;;;;;;8.90;7.97;;;;;;;23.89;54.93;100945.34;4976554;28;20038;-79
2021/06/23 07:46:50;;;;;;;13.30;9.45;;;;;;;24.12;54.45;100946.78;4972983;28;20407;-80
2021/06/23 07:49:17;;;;;;;8.48;6.18;;;;;;;24.23;53.91;100949.72;4959259;28;20037;-79
2021/06/23 07:51:58;;;;;;;13.88;9.43;;;;;;;24.43;53.77;100941.38;4976204;28;20054;-79
2021/06/23 07:54:48;;;;;;;8.97;7.40;;;;;;;24.42;53.11;100946.88;4972714;28;20057;-79
2021/06/23 08:10:48;;;;;;;10.27;8.40;;;;;;;23.99;54.57;100942.06;4968548;28;20046;-79
2021/06/23 08:13:14;;;;;;;7.45;6.20;;;;;;;23.94;54.56;100941.44;4976135;28;20046;-80
2021/06/23 08:15:43;;;;;;;8.07;7.25;;;;;;;23.84;55.03;100951.00;4958265;28;20039;-80
2021/06/23 08:18:09;;;;;;;7.65;5.47;;;;;;;23.86;55.21;100953.63;4958814;28;20427;-79
2021/06/23 08:20:35;;;;;;;8.18;5.78;;;;;;;23.63;55.08;100953.91;4958313;28;20085;-80
2021/06/23 08:23:01;;;;;;;7.43;6.15;;;;;;;23.51;55.55;100957.25;4976054;28;20110;-79
2021/06/23 08:25:26;;;;;;;10.00;5.93;;;;;;;23.35;56.31;100964.41;4958166;28;20065;-79
2021/06/23 08:27:52;;;;;;;9.95;7.55;;;;;;;23.35;56.86;100959.00;4975847;28;20062;-80
2021/06/23 08:30:20;;;;;;;8.77;7.32;;;;;;;23.24;56.90;100953.28;4942236;28;20400;-80
2021/06/23 08:32:45;;;;;;;11.38;7.65;;;;;;;23.10;56.80;100949.50;4976054;28;20034;-79
2021/06/23 08:35:11;;;;;;;10.02;6.55;;;;;;;23.03;56.74;100957.97;4958050;28;20477;-79
2021/06/23 08:37:37;;;;;;;8.65;6.70;;;;;;;22.96;56.91;100963.69;4958673;28;20031;-79
2021/06/23 08:40:04;;;;;;;7.38;5.80;;;;;;;22.80;57.17;100959.13;4975403;28;20082;-79
2021/06/23 08:42:30;;;;;;;8.63;5.40;;;;;;;22.61;57.72;100962.75;4958784;28;20031;-79
2021/06/23 08:44:55;;;;;;;7.75;6.03;;;;;;;22.47;57.83;100966.09;4957189;28;20042;-79
2021/06/23 08:47:23;;;;;;;7.68;6.20;;;;;;;22.40;58.01;100959.28;4957733;28;20137;-79
2021/06/23 08:49:49;;;;;;;6.90;5.72;;;;;;;22.15;59.12;100966.75;4975081;28;20039;-79
2021/06/23 08:52:14;;;;;;;8.52;5.20;;;;;;;22.05;58.99;100969.84;4975216;28;20038;-79
2021/06/23 08:54:42;;;;;;;8.20;5.63;;;;;;;22.05;60.15;100974.38;4974988;28;20039;-79
2021/06/23 08:57:09;;;;;;;7.82;6.20;;;;;;;22.14;59.58;100976.63;4975054;28;20027;-79
2021/06/23 08:59:35;;;;;;;8.80;5.57;;;;;;;22.24;59.82;100986.03;4975036;28;20054;-79
2021/06/23 09:02:01;;;;;;;6.03;5.28;;;;;;;22.43;58.88;100985.16;4974926;28;20039;-79
2021/06/23 09:04:27;;;;;;;9.32;5.20;;;;;;;22.58;58.56;100983.53;4957170;28;20045;-79
2021/06/23 09:06:58;;;;;;;7.60;5.18;;;;;;;22.59;58.47;100985.28;4974370;28;20030;-79
2021/06/23 09:09:25;;;;;;;7.88;6.60;;;;;;;22.51;58.51;100982.97;4951306;28;20118;-79
2021/06/23 09:11:58;;;;;;;8.23;5.80;;;;;;;22.49;59.14;100992.91;4974968;28;20043;-80
2021/06/23 09:14:28;;;;;;;8.00;5.38;;;;;;;22.48;59.16;100991.19;4974777;28;20038;-79
2021/06/23 09:17:08;;;;;;;13.52;6.65;;;;;;;22.51;60.02;100999.97;4974485;28;20039;-79
2021/06/23 09:19:39;;;;;;;9.27;5.88;;;;;;;22.51;59.81;101002.66;4957411;28;20034;-79
2021/06/23 09:22:25;;;;;;;8.00;5.18;;;;;;;22.64;60.02;100997.56;4942545;28;20039;-79
2021/06/23 09:24:51;;;;;;;9.25;6.53;;;;;;;22.85;59.43;101003.69;4956695;28;20483;-79
2021/06/23 09:27:24;;;;;;;8.70;4.90;;;;;;;22.91;59.09;101003.38;4974261;28;20479;-79
2021/06/23 09:29:53;;;;;;;7.07;5.07;;;;;;;23.21;57.14;100999.22;4974443;28;20074;-79
2021/06/23 09:32:20;;;;;;;8.90;5.03;;;;;;;23.30;57.59;100998.78;4974235;28;20435;-79
2021/06/23 09:34:48;;;;;;;8.95;6.18;;;;;;;23.37;57.00;100986.72;4973832;28;20108;-79
2021/06/23 09:37:28;;;;;;;6.60;5.45;;;;;;;23.52;55.31;100996.69;4968843;28;20486;-79
2021/06/23 09:40:17;;;;;;;9.80;4.68;;;;;;;23.63;55.18;101002.41;4964094;28;20035;-79
2021/06/23 09:43:02;;;;;;;6.78;4.90;;;;;;;23.58;54.18;101001.78;4971633;28;20089;-79
2021/06/23 09:45:31;;;;;;;8.57;5.60;;;;;;;23.59;55.03;101002.63;4950059;28;20038;-79
2021/06/23 09:48:01;;;;;;;8.70;5.20;;;;;;;23.50;54.38;100998.63;4956623;28;20407;-79
2021/06/23 09:50:29;;;;;;;10.80;5.00;;;;;;;23.33;55.11;101002.16;4973736;28;20062;-79
2021/06/23 09:53:02;;;;;;;6.28;4.45;;;;;;;23.19;55.25;100994.81;4956871;28;20101;-79
2021/06/23 09:55:36;;;;;;;7.20;4.63;;;;;;;23.07;55.08;100991.88;4970311;28;20049;-79
2021/06/23 09:58:24;;;;;;;8.73;4.40;;;;;;;22.91;55.46;100981.84;4967054;28;20041;-79
2021/06/23 10:01:11;;;;;;;9.73;5.50;;;;;;;22.70;56.59;100983.78;4946891;28;20043;-79
2021/06/23 10:03:59;;;;;;;7.60;4.35;;;;;;;22.54;58.09;100988.19;4965423;28;20045;-79
2021/06/23 10:06:26;;;;;;;9.93;5.80;;;;;;;22.40;58.61;100991.56;4966535;28;20422;-79
2021/06/23 10:09:11;;;;;;;9.85;5.70;;;;;;;22.17;59.06;100989.94;4956472;28;20035;-79
2021/06/23 10:11:38;;;;;;;11.77;6.28;;;;;;;21.79;60.31;100983.63;4956817;28;20514;-79
2021/06/23 10:14:05;;;;;;;9.10;5.65;;;;;;;21.38;63.84;100987.25;4973639;28;20085;-79
2021/06/23 10:16:31;;;;;;;10.20;6.38;;;;;;;20.76;65.25;100999.66;4973168;28;20031;-79
2021/06/23 10:18:57;;;;;;;10.60;6.45;;;;;;;20.51;66.68;101020.31;4973715;28;20033;-79
2021/06/23 10:21:22;;;;;;;9.00;6.63;;;;;;;20.31;67.84;101029.16;4973857;28;20116;-79
2021/06/23 10:23:49;;;;;;;12.60;8.27;;;;;;;20.15;69.81;101026.19;4956784;28;20030;-78
2021/06/23 10:26:16;;;;;;;13.60;8.70;;;;;;;20.02;71.92;101039.19;4956054;28;20414;-78
2021/06/23 10:28:50;;;;;;;12.90;10.00;;;;;;;19.66;74.95;101044.94;4956281;28;20186;-78
2021/06/23 10:31:17;;;;;;;13.73;8.65;;;;;;;19.59;74.29;101048.72;4931889;28;20488;-79
2021/06/23 10:33:44;;;;;;;11.35;9.32;;;;;;;19.44;75.78;101041.22;4955894;28;20042;-79
2021/06/23 10:36:10;;;;;;;15.63;10.00;;;;;;;19.36;76.09;101045.97;4973396;28;20030;-79
2021/06/23 10:38:36;;;;;;;13.43;8.70;;;;;;;19.31;76.52;101059.53;4955900;28;20053;-79
2021/06/23 10:41:04;;;;;;;14.48;8.88;;;;;;;19.24;76.82;101053.50;4973540;28;20109;-79
2021/06/23 10:43:29;;;;;;;13.10;8.65;;;;;;;19.11;76.94;101059.31;4974721;28;20038;-79
2021/06/23 10:45:55;;;;;;;10.57;8.05;;;;;;;18.99;77.77;101056.13;4974761;28;20031;-79
2021/06/23 10:48:20;;;;;;;11.80;8.50;;;;;;;18.88;78.38;101063.59;4973397;28;20046;-78
2021/06/23 10:50:45;;;;;;;10.88;7.78;;;;;;;18.76;78.50;101062.22;4972431;28;20121;-79
2021/06/23 10:53:29;;;;;;;9.13;6.93;;;;;;;18.79;78.04;101064.78;4973216;28;20644;-79
2021/06/23 10:55:56;;;;;;;11.73;6.95;;;;;;;18.86;77.70;101062.78;4939506;28;20038;-79
2021/06/23 10:58:33;;;;;;;9.65;8.07;;;;;;;18.85;77.52;101065.53;4965734;28;20089;-79
2021/06/23 11:01:06;;;;;;;9.70;8.23;;;;;;;18.85;77.16;101068.19;4955814;28;20499;-79
2021/06/23 11:04:02;;;;;;;12.13;7.57;;;;;;;18.77;77.71;101066.63;4973145;28;20549;-78
2021/06/23 11:06:37;;;;;;;12.95;7.88;;;;;;;18.87;78.29;101072.56;4948188;28;20035;-79
2021/06/23 11:09:22;;;;;;;9.93;7.40;;;;;;;18.98;78.05;101066.88;4959324;28;20043;-79
2021/06/23 11:11:47;;;;;;;11.38;7.88;;;;;;;18.99;77.52;101068.59;4973473;28;20085;-79
2021/06/23 11:14:17;;;;;;;11.35;8.45;;;;;;;18.97;78.11;101070.47;4958903;28;20498;-79
2021/06/23 11:16:42;;;;;;;15.25;7.65;;;;;;;18.92;77.40;101072.44;4976274;28;20117;-79
2021/06/23 11:19:09;;;;;;;13.85;9.25;;;;;;;18.89;79.20;101080.53;4976587;28;20054;-79
2021/06/23 11:21:34;;;;;;;11.32;8.80;;;;;;;18.87;79.62;101080.59;4958842;28;20064;-79
2021/06/23 11:24:11;;;;;;;12.70;10.25;;;;;;;18.85;79.70;101073.53;4976111;28;20129;-79
2021/06/23 11:26:38;;;;;;;11.65;10.30;;;;;;;18.84;80.44;101072.69;4973459;28;20041;-79
2021/06/23 11:29:09;;;;;;;13.73;9.27;;;;;;;18.77;81.12;101082.66;4968544;28;20047;-79
2021/06/23 11:32:12;;;;;;;14.30;10.40;;;;;;;18.66;81.07;101081.25;4951145;28;20043;-79
2021/06/23 11:34:41;;;;;;;15.05;11.27;;;;;;;18.60;81.86;101077.84;4951018;28;20802;-79
2021/06/23 11:37:13;;;;;;;11.27;9.85;;;;;;;18.70;81.44;101073.06;4959365;28;20039;-79
2021/06/23 11:39:38;;;;;;;;;;;;;;;18.71;81.54;101076.63;4977544;28;20042;-79
2021/06/23 11:42:05;;;;;;;16.73;12.25;;;;;;;18.75;82.86;101068.47;4976139;28;19914;-79
2021/06/23 11:44:31;;;;;;;15.63;12.77;;;;;;;18.91;82.28;101076.88;4958668;28;20042;-79
2021/06/23 11:46:59;;;;;;;16.13;13.45;;;;;;;19.03;82.60;101063.13;4976318;28;20502;-79
2021/06/23 11:49:25;;;;;;;16.65;13.35;;;;;;;19.19;81.90;101071.50;4976292;28;20042;-79